Clark, South Dakota
Current Conditions -  °F | °C
As of 2:00 AM on Sunday 21 Dec 2014 (Local Time) from KATY Reporting Station
Haze Haze  
Wind Chill: 20°   Ceiling: 200
Heat Index: 29°   Visibility: 1mi
Dew Point: 28°   Wind: 10mph
Humidity: 96%   Direction: 200°SSW
Pressure: 29.85"   Gusts: NA
Location:  44.88°N, 97.73°W
Report Text: KATY 210800Z AUTO 20009KT 1SM BR OVC002 M02/M02 A2985 RMK AO2 T10171022
Loading
Personal Weather Stations






























Interactive Weather Map New forecast layout! Learn more

10-Day Weather Forecast

Advertisements
Track Severe Weather on mobile